createdAt,value
2019-02-06T00:01:03.550Z,96.15
2019-02-06T00:03:32.439Z,96.56
2019-02-06T00:06:01.076Z,96.34
2019-02-06T00:08:29.618Z,96.55
2019-02-06T00:10:58.250Z,97.21
2019-02-06T00:13:27.169Z,97.08
2019-02-06T00:15:56.026Z,96.82
2019-02-06T00:18:24.817Z,97.19
2019-02-06T00:20:53.643Z,96.93
2019-02-06T00:23:22.389Z,97.06
2019-02-06T00:25:51.782Z,97.15
2019-02-06T00:28:20.526Z,97.06
2019-02-06T00:30:49.655Z,96.37
2019-02-06T00:33:18.343Z,96.44
2019-02-06T00:35:47.142Z,97.00
2019-02-06T00:38:15.706Z,96.56
2019-02-06T00:40:45.872Z,97.15
2019-02-06T00:43:14.549Z,97.42
2019-02-06T00:45:43.668Z,96.81
2019-02-06T00:48:13.603Z,96.26
2019-02-06T00:50:42.486Z,96.79
2019-02-06T00:53:10.955Z,96.77
2019-02-06T00:55:39.460Z,96.75
2019-02-06T00:58:07.953Z,97.16
2019-02-06T01:00:37.023Z,96.54
2019-02-06T01:03:06.766Z,96.54
2019-02-06T01:05:38.383Z,97.07
2019-02-06T01:08:06.196Z,98.07
2019-02-06T01:10:34.951Z,97.14
2019-02-06T01:13:04.016Z,97.11
2019-02-06T01:15:33.461Z,96.45
2019-02-06T01:18:02.027Z,96.68
2019-02-06T01:20:30.599Z,96.96
2019-02-06T01:22:59.912Z,98.63
2019-02-06T01:25:28.693Z,97.68
2019-02-06T01:27:57.247Z,96.91
2019-02-06T01:30:28.081Z,97.80
2019-02-06T01:32:58.252Z,97.77
2019-02-06T01:35:26.934Z,97.79
2019-02-06T01:37:56.352Z,98.19
2019-02-06T01:40:25.124Z,97.96
2019-02-06T01:42:53.700Z,98.71
2019-02-06T01:45:31.403Z,98.25
2019-02-06T01:48:00.564Z,98.54
2019-02-06T01:50:28.958Z,98.37
2019-02-06T01:52:57.558Z,98.29
2019-02-06T01:55:26.047Z,97.96
2019-02-06T01:57:57.206Z,99.39
2019-02-06T02:00:26.119Z,99.51
2019-02-06T02:02:55.200Z,99.27
2019-02-06T02:05:23.939Z,100.00
2019-02-06T02:07:52.629Z,100.00
2019-02-06T02:10:21.356Z,99.46
2019-02-06T02:12:50.567Z,99.14
2019-02-06T02:15:19.134Z,100.00
2019-02-06T02:17:47.814Z,100.00
2019-02-06T02:20:19.128Z,100.00
2019-02-06T02:22:47.730Z,100.00
2019-02-06T02:25:16.709Z,99.95
2019-02-06T02:27:45.495Z,99.81
2019-02-06T02:30:22.822Z,100.00
2019-02-06T02:32:51.817Z,100.00
2019-02-06T02:35:20.568Z,100.00
2019-02-06T02:37:49.355Z,100.00
2019-02-06T02:40:17.900Z,100.00
2019-02-06T02:42:46.421Z,100.00
2019-02-06T02:45:17.962Z,100.00
2019-02-06T02:47:46.955Z,100.00
2019-02-06T02:50:16.000Z,100.00
2019-02-06T02:52:44.423Z,100.00
2019-02-06T02:55:14.046Z,100.00
2019-02-06T02:57:42.712Z,100.00
2019-02-06T03:00:17.684Z,100.00
2019-02-06T03:03:13.242Z,100.00
2019-02-06T03:05:41.818Z,100.00
2019-02-06T03:08:10.287Z,100.00
2019-02-06T03:10:38.940Z,100.00
2019-02-06T03:13:07.807Z,100.00
2019-02-06T03:15:36.515Z,100.00
2019-02-06T03:18:05.598Z,100.00
2019-02-06T03:20:34.129Z,100.00
2019-02-06T03:23:02.707Z,100.00
2019-02-06T03:25:31.239Z,100.00
2019-02-06T03:27:59.986Z,100.00
2019-02-06T03:30:28.560Z,100.00
2019-02-06T03:32:57.057Z,100.00
2019-02-06T03:35:25.750Z,100.00
2019-02-06T03:37:55.756Z,100.00
2019-02-06T03:40:24.338Z,100.00
2019-02-06T03:42:52.895Z,100.00
2019-02-06T03:45:21.452Z,100.00
2019-02-06T03:47:50.092Z,100.00
2019-02-06T03:50:20.727Z,100.00
2019-02-06T03:52:49.343Z,100.00
2019-02-06T03:55:17.989Z,100.00
2019-02-06T03:57:46.591Z,100.00
2019-02-06T04:00:16.112Z,100.00
2019-02-06T04:02:44.729Z,100.00
2019-02-06T04:05:13.851Z,100.00
2019-02-06T04:07:42.432Z,100.00
2019-02-06T04:10:13.350Z,100.00
2019-02-06T04:12:42.028Z,100.00
2019-02-06T04:15:11.474Z,100.00
2019-02-06T04:17:40.020Z,100.00
2019-02-06T04:20:09.910Z,100.00
2019-02-06T04:22:38.369Z,100.00
2019-02-06T04:25:07.827Z,100.00
2019-02-06T04:27:36.425Z,100.00
2019-02-06T04:30:07.371Z,100.00
2019-02-06T04:32:35.899Z,99.69
2019-02-06T04:35:07.106Z,99.75
2019-02-06T04:37:35.726Z,99.49
2019-02-06T04:40:09.075Z,99.13
2019-02-06T04:42:37.605Z,100.00
2019-02-06T04:45:07.079Z,99.62
2019-02-06T04:47:35.666Z,99.04
2019-02-06T04:50:06.032Z,98.96
2019-02-06T04:52:34.858Z,99.37
2019-02-06T04:55:04.085Z,98.69
2019-02-06T04:57:33.773Z,98.84
2019-02-06T05:00:04.093Z,98.49
2019-02-06T05:02:32.561Z,98.18
2019-02-06T05:05:01.125Z,97.92
2019-02-06T05:07:29.756Z,98.94
2019-02-06T05:09:58.325Z,98.52
2019-02-06T05:12:26.931Z,98.47
2019-02-06T05:14:55.920Z,98.63
2019-02-06T05:17:24.718Z,97.72
2019-02-06T05:19:53.444Z,97.35
2019-02-06T05:22:21.915Z,98.39
2019-02-06T05:24:50.622Z,98.56
2019-02-06T05:27:19.099Z,98.03
2019-02-06T05:29:47.911Z,97.84
2019-02-06T05:32:16.653Z,97.55
2019-02-06T05:34:45.352Z,98.01
2019-02-06T05:37:13.939Z,97.66
2019-02-06T05:39:42.766Z,98.20
2019-02-06T05:42:11.559Z,97.36
2019-02-06T05:44:41.971Z,97.74
2019-02-06T05:47:10.633Z,97.03
2019-02-06T05:49:39.626Z,97.37
2019-02-06T05:52:08.465Z,97.64
2019-02-06T05:54:37.042Z,99.19
2019-02-06T05:57:05.633Z,98.28
2019-02-06T05:59:34.642Z,99.68
2019-02-06T06:02:04.662Z,99.17
2019-02-06T06:04:33.243Z,98.87
2019-02-06T06:07:02.054Z,99.84
2019-02-06T06:09:30.613Z,99.69
2019-02-06T06:11:59.217Z,99.71
2019-02-06T06:14:27.853Z,100.00
2019-02-06T06:16:56.276Z,98.72
2019-02-06T06:19:25.488Z,98.05
2019-02-06T06:21:54.591Z,97.69
2019-02-06T06:24:23.334Z,98.10
2019-02-06T06:26:51.858Z,99.02
2019-02-06T06:29:21.015Z,99.04
2019-02-06T06:31:49.722Z,99.18
2019-02-06T06:34:18.185Z,98.00
2019-02-06T06:36:46.981Z,98.00
2019-02-06T06:39:16.123Z,96.89
2019-02-06T06:41:45.080Z,96.45
2019-02-06T06:44:13.665Z,96.31
2019-02-06T06:46:42.114Z,96.36
2019-02-06T06:49:10.570Z,95.81
2019-02-06T06:51:39.240Z,95.07
2019-02-06T06:54:07.946Z,94.93
2019-02-06T06:56:36.821Z,94.25
2019-02-06T06:59:05.486Z,94.03
2019-02-06T07:01:34.797Z,93.89
2019-02-06T07:04:03.551Z,93.60
2019-02-06T07:06:32.037Z,93.80
2019-02-06T07:09:00.932Z,93.60
2019-02-06T07:11:29.786Z,93.11
2019-02-06T07:13:58.706Z,93.60
2019-02-06T07:16:27.293Z,93.20
2019-02-06T07:18:55.862Z,92.81
2019-02-06T07:21:24.358Z,92.26
2019-02-06T07:23:53.480Z,92.54
2019-02-06T07:26:22.253Z,92.38
2019-02-06T07:28:51.095Z,93.09
2019-02-06T07:31:19.838Z,91.89
2019-02-06T07:33:48.541Z,91.32
2019-02-06T07:36:18.307Z,92.76
2019-02-06T07:38:47.244Z,92.49
2019-02-06T07:41:15.993Z,93.34
2019-02-06T07:43:44.737Z,92.02
2019-02-06T07:46:13.443Z,91.16
2019-02-06T07:48:42.125Z,90.65
2019-02-06T07:51:11.176Z,91.72
2019-02-06T07:53:39.689Z,90.69
2019-02-06T07:56:08.383Z,89.72
2019-02-06T07:58:37.528Z,91.04
2019-02-06T08:01:06.225Z,89.88
2019-02-06T08:03:34.900Z,90.22
2019-02-06T08:06:03.735Z,90.27
2019-02-06T08:08:36.189Z,89.39
2019-02-06T08:11:03.571Z,89.09
2019-02-06T08:13:32.914Z,90.25
2019-02-06T08:16:01.887Z,89.93
2019-02-06T08:18:30.500Z,88.65
2019-02-06T08:20:59.215Z,88.46
2019-02-06T08:23:28.031Z,87.40
2019-02-06T08:25:56.695Z,87.48
2019-02-06T08:28:25.302Z,86.67
2019-02-06T08:30:54.595Z,86.70
2019-02-06T08:33:23.881Z,86.05
2019-02-06T08:35:52.572Z,85.86
2019-02-06T08:38:21.126Z,85.44
2019-02-06T08:40:49.851Z,86.04
2019-02-06T08:43:18.591Z,84.79
2019-02-06T08:45:47.324Z,84.29
2019-02-06T08:48:15.888Z,85.08
2019-02-06T08:50:44.565Z,84.49
2019-02-06T08:53:13.050Z,83.87
2019-02-06T08:55:41.726Z,83.36
2019-02-06T08:58:10.305Z,82.73
2019-02-06T09:00:39.821Z,82.62
2019-02-06T09:03:10.672Z,82.46
2019-02-06T09:05:40.367Z,82.12
2019-02-06T09:08:09.666Z,82.27
2019-02-06T09:10:38.777Z,81.05
2019-02-06T09:13:07.333Z,80.69
2019-02-06T09:15:36.419Z,80.07
2019-02-06T09:18:06.104Z,79.10
2019-02-06T09:20:35.268Z,79.07
2019-02-06T09:23:04.891Z,78.59
2019-02-06T09:25:33.659Z,78.58
2019-02-06T09:28:02.231Z,78.59
2019-02-06T09:30:32.551Z,78.75
2019-02-06T09:33:01.453Z,77.42
2019-02-06T09:35:29.935Z,77.55
2019-02-06T09:37:58.635Z,76.88
2019-02-06T09:40:29.202Z,76.47
2019-02-06T09:42:57.768Z,76.22
2019-02-06T09:45:26.556Z,75.99
2019-02-06T09:47:55.576Z,75.18
2019-02-06T09:50:28.201Z,74.77
2019-02-06T09:52:57.131Z,74.30
2019-02-06T09:55:26.706Z,74.17
2019-02-06T09:57:55.998Z,74.44
2019-02-06T10:00:28.714Z,74.34
2019-02-06T10:02:57.287Z,74.55
2019-02-06T10:05:26.584Z,74.27
2019-02-06T10:07:55.258Z,73.81
2019-02-06T10:10:24.399Z,74.30
2019-02-06T10:12:53.415Z,74.54
2019-02-06T10:15:30.769Z,74.29
2019-02-06T10:18:01.037Z,74.55
2019-02-06T10:20:45.735Z,75.07
2019-02-06T10:23:14.448Z,75.62
2019-02-06T10:25:43.022Z,75.85
2019-02-06T10:28:11.681Z,75.99
2019-02-06T10:30:47.485Z,75.79
2019-02-06T10:33:18.660Z,75.64
2019-02-06T10:35:46.623Z,76.34
2019-02-06T10:38:15.350Z,76.36
2019-02-06T10:40:43.924Z,75.98
2019-02-06T10:43:12.607Z,76.15
2019-02-06T10:45:41.800Z,76.00
2019-02-06T10:48:10.364Z,75.14
2019-02-06T10:50:43.493Z,75.40
2019-02-06T10:53:12.170Z,75.52
2019-02-06T10:55:40.743Z,75.76
2019-02-06T10:58:09.634Z,76.36
2019-02-06T11:00:46.069Z,77.41
2019-02-06T11:03:14.832Z,77.40
2019-02-06T11:05:43.704Z,78.83
2019-02-06T11:08:12.449Z,78.04
2019-02-06T11:10:41.638Z,78.91
2019-02-06T11:13:10.166Z,80.40
2019-02-06T11:15:38.777Z,80.68
2019-02-06T11:18:07.356Z,81.90
2019-02-06T11:20:37.056Z,83.01
2019-02-06T11:23:07.009Z,84.02
2019-02-06T11:25:36.662Z,85.95
2019-02-06T11:28:06.475Z,87.02
2019-02-06T11:30:35.815Z,87.30
2019-02-06T11:33:05.750Z,87.50
2019-02-06T11:35:34.721Z,88.75
2019-02-06T11:38:03.795Z,89.19
2019-02-06T11:40:32.606Z,90.62
2019-02-06T11:43:01.164Z,91.42
2019-02-06T11:45:31.659Z,92.49
2019-02-06T11:48:00.725Z,93.64
2019-02-06T11:50:40.271Z,93.90
2019-02-06T11:53:12.667Z,94.00
2019-02-06T11:55:41.145Z,93.11
2019-02-06T11:58:10.287Z,93.84
2019-02-06T12:01:05.209Z,93.92
2019-02-06T12:03:33.786Z,94.05
2019-02-06T12:06:02.523Z,94.25
2019-02-06T12:08:31.467Z,94.27
2019-02-06T12:11:00.555Z,93.99
2019-02-06T12:13:29.036Z,94.85
2019-02-06T12:15:57.543Z,94.27
2019-02-06T12:18:26.108Z,93.83
2019-02-06T12:20:54.737Z,94.02
2019-02-06T12:23:32.006Z,95.14
2019-02-06T12:25:54.111Z,94.65
2019-02-06T12:28:23.201Z,94.64
2019-02-06T12:30:51.742Z,94.52
2019-02-06T12:33:20.433Z,94.66
2019-02-06T12:35:49.014Z,95.01
2019-02-06T12:38:17.643Z,95.31
2019-02-06T12:40:46.404Z,95.22
2019-02-06T12:43:14.872Z,95.86
2019-02-06T12:45:43.821Z,95.93
2019-02-06T12:48:12.396Z,96.84
2019-02-06T12:50:41.027Z,97.85
2019-02-06T12:53:09.545Z,98.74
2019-02-06T12:55:38.688Z,99.41
2019-02-06T12:58:08.091Z,99.79
2019-02-06T13:00:39.488Z,100.00
2019-02-06T13:03:08.552Z,100.00
2019-02-06T13:05:38.143Z,99.91
2019-02-06T13:08:07.320Z,100.00
2019-02-06T13:10:36.120Z,100.00
2019-02-06T13:13:05.441Z,100.00
2019-02-06T13:15:34.445Z,100.00
2019-02-06T13:18:04.304Z,100.00
2019-02-06T13:20:33.404Z,100.00
2019-02-06T13:23:02.502Z,100.00
2019-02-06T13:25:30.986Z,100.00
2019-02-06T13:27:59.541Z,99.68
2019-02-06T13:30:32.252Z,99.21
2019-02-06T13:33:01.160Z,99.29
2019-02-06T13:35:29.737Z,99.34
2019-02-06T13:37:58.294Z,98.76
2019-02-06T13:40:27.811Z,98.86
2019-02-06T13:42:56.908Z,98.58
2019-02-06T13:45:29.612Z,98.21
2019-02-06T13:47:58.215Z,98.50
2019-02-06T13:50:28.188Z,98.63
2019-02-06T13:52:56.765Z,98.67
2019-02-06T13:55:25.891Z,98.60
2019-02-06T13:57:54.730Z,98.15
2019-02-06T14:00:27.334Z,98.39
2019-02-06T14:02:56.034Z,98.78
2019-02-06T14:05:27.998Z,99.22
2019-02-06T14:08:00.111Z,99.40
2019-02-06T14:10:29.258Z,99.62
2019-02-06T14:12:59.087Z,100.00
2019-02-06T14:15:31.826Z,100.00
2019-02-06T14:18:01.051Z,100.00
2019-02-06T14:20:30.274Z,100.00
2019-02-06T14:23:15.594Z,100.00
2019-02-06T14:26:26.379Z,100.00
2019-02-06T14:29:57.786Z,100.00
2019-02-06T14:33:22.496Z,100.00
2019-02-06T14:36:24.296Z,100.00
2019-02-06T14:39:20.222Z,100.00
2019-02-06T14:42:34.324Z,100.00
2019-02-06T14:46:20.529Z,100.00
2019-02-06T14:50:06.677Z,100.00
2019-02-06T14:53:10.238Z,100.00
2019-02-06T14:56:48.550Z,100.00
2019-02-06T15:00:08.370Z,100.00
2019-02-06T15:03:45.609Z,100.00
2019-02-06T15:07:15.872Z,100.00
2019-02-06T15:10:59.378Z,100.00
2019-02-06T15:14:46.451Z,100.00
2019-02-06T15:18:31.247Z,100.00
2019-02-06T15:22:18.898Z,100.00
2019-02-06T15:25:31.208Z,100.00
2019-02-06T15:28:58.229Z,100.00
2019-02-06T15:32:23.320Z,100.00
2019-02-06T15:35:30.265Z,100.00
2019-02-06T15:38:39.952Z,100.00
2019-02-06T15:42:00.457Z,100.00
2019-02-06T15:45:32.753Z,100.00
2019-02-06T15:48:31.689Z,100.00
2019-02-06T15:51:32.640Z,100.00
2019-02-06T15:55:01.404Z,100.00
2019-02-06T15:58:26.858Z,100.00
2019-02-06T16:01:39.706Z,100.00
2019-02-06T16:04:55.341Z,100.00
2019-02-06T16:08:37.017Z,100.00
2019-02-06T16:12:17.876Z,100.00
2019-02-06T16:15:40.366Z,100.00
2019-02-06T16:18:38.967Z,100.00
2019-02-06T16:22:09.167Z,100.00
2019-02-06T16:25:05.552Z,100.00
2019-02-06T16:28:35.047Z,100.00
2019-02-06T16:31:57.396Z,100.00
2019-02-06T16:35:07.036Z,100.00
2019-02-06T16:37:56.960Z,100.00
2019-02-06T16:41:37.247Z,100.00
2019-02-06T16:44:34.214Z,100.00
2019-02-06T16:47:52.311Z,100.00
2019-02-06T16:51:09.191Z,100.00
2019-02-06T16:54:59.690Z,100.00
2019-02-06T16:58:27.537Z,100.00
2019-02-06T17:01:49.014Z,100.00
2019-02-06T17:04:49.383Z,100.00
2019-02-06T17:07:56.969Z,100.00
2019-02-06T17:11:51.266Z,100.00
2019-02-06T17:15:25.922Z,100.00
2019-02-06T17:18:42.467Z,100.00
2019-02-06T17:22:23.500Z,100.00
2019-02-06T17:25:40.032Z,100.00
2019-02-06T17:29:06.144Z,100.00
2019-02-06T17:32:22.915Z,100.00
2019-02-06T17:35:09.262Z,100.00
2019-02-06T17:38:59.160Z,100.00
2019-02-06T17:41:44.448Z,100.00
2019-02-06T17:44:56.131Z,100.00
2019-02-06T17:48:16.230Z,100.00
2019-02-06T17:51:18.807Z,100.00
2019-02-06T17:54:47.004Z,100.00
2019-02-06T17:57:15.676Z,100.00
2019-02-06T17:59:44.272Z,100.00
2019-02-06T18:02:13.156Z,100.00
2019-02-06T18:04:44.918Z,100.00
2019-02-06T18:07:13.579Z,100.00
2019-02-06T18:09:42.496Z,100.00
2019-02-06T18:12:11.500Z,100.00
2019-02-06T18:14:40.157Z,100.00
2019-02-06T18:17:08.728Z,100.00
2019-02-06T18:19:39.428Z,100.00
2019-02-06T18:22:08.838Z,100.00
2019-02-06T18:24:37.609Z,100.00
2019-02-06T18:27:06.727Z,100.00
2019-02-06T18:29:35.565Z,100.00
2019-02-06T18:32:05.020Z,100.00
2019-02-06T18:34:33.803Z,100.00
2019-02-06T18:37:02.580Z,100.00
2019-02-06T18:39:31.207Z,100.00
2019-02-06T18:41:59.872Z,100.00
2019-02-06T18:44:29.237Z,100.00
2019-02-06T18:47:00.263Z,100.00
2019-02-06T18:49:28.901Z,100.00
2019-02-06T18:51:57.571Z,100.00
2019-02-06T18:54:26.393Z,100.00
2019-02-06T18:56:55.082Z,100.00
2019-02-06T18:59:24.026Z,100.00
2019-02-06T19:01:55.308Z,100.00
2019-02-06T19:04:23.497Z,100.00
2019-02-06T19:06:52.132Z,100.00
2019-02-06T19:09:20.962Z,100.00
2019-02-06T19:11:49.569Z,100.00
2019-02-06T19:14:19.192Z,100.00
2019-02-06T19:16:48.311Z,100.00
2019-02-06T19:19:26.323Z,100.00
2019-02-06T19:21:48.278Z,100.00
2019-02-06T19:24:17.830Z,100.00
2019-02-06T19:26:46.654Z,100.00
2019-02-06T19:29:15.105Z,100.00
2019-02-06T19:31:44.731Z,100.00
2019-02-06T19:34:13.352Z,100.00
2019-02-06T19:36:42.040Z,100.00
2019-02-06T19:39:10.708Z,100.00
2019-02-06T19:41:40.035Z,100.00
2019-02-06T19:44:11.252Z,100.00
2019-02-06T19:46:39.515Z,100.00
2019-02-06T19:49:08.642Z,100.00
2019-02-06T19:51:37.470Z,100.00
2019-02-06T19:54:06.199Z,100.00
2019-02-06T19:56:35.723Z,100.00
2019-02-06T19:59:05.187Z,100.00
2019-02-06T20:01:34.252Z,100.00
2019-02-06T20:04:03.045Z,100.00
2019-02-06T20:06:32.585Z,100.00
2019-02-06T20:09:10.496Z,100.00
2019-02-06T20:11:39.135Z,100.00
2019-02-06T20:14:07.841Z,100.00
2019-02-06T20:16:37.502Z,100.00
2019-02-06T20:19:06.582Z,100.00
2019-02-06T20:21:36.077Z,100.00
2019-02-06T20:24:06.273Z,100.00
2019-02-06T20:26:35.381Z,100.00
2019-02-06T20:29:04.298Z,100.00
2019-02-06T20:31:33.581Z,100.00
2019-02-06T20:34:02.188Z,100.00
2019-02-06T20:36:31.185Z,100.00
2019-02-06T20:39:00.396Z,100.00
2019-02-06T20:41:29.369Z,100.00
2019-02-06T20:43:58.297Z,100.00
2019-02-06T20:46:27.402Z,100.00
2019-02-06T20:48:56.075Z,100.00
2019-02-06T20:51:24.735Z,100.00
2019-02-06T20:53:53.468Z,100.00
2019-02-06T20:56:23.290Z,100.00
2019-02-06T20:58:52.185Z,100.00
2019-02-06T21:01:20.741Z,100.00
2019-02-06T21:03:49.569Z,100.00
2019-02-06T21:06:18.173Z,100.00
2019-02-06T21:08:46.801Z,100.00
2019-02-06T21:11:15.814Z,100.00
2019-02-06T21:13:44.767Z,100.00
2019-02-06T21:16:13.352Z,100.00
2019-02-06T21:18:42.082Z,100.00
2019-02-06T21:21:10.659Z,100.00
2019-02-06T21:23:39.165Z,100.00
2019-02-06T21:26:07.693Z,100.00
2019-02-06T21:28:36.766Z,100.00
2019-02-06T21:31:05.671Z,100.00
2019-02-06T21:33:34.238Z,100.00
2019-02-06T21:36:02.858Z,100.00
2019-02-06T21:38:31.922Z,100.00
2019-02-06T21:41:00.402Z,100.00
2019-02-06T21:43:29.983Z,100.00
2019-02-06T21:45:58.819Z,100.00
2019-02-06T21:48:27.298Z,100.00
2019-02-06T21:50:56.425Z,100.00
2019-02-06T21:53:24.990Z,100.00
2019-02-06T21:55:53.558Z,100.00
2019-02-06T21:58:22.182Z,100.00
2019-02-06T22:00:50.749Z,100.00
2019-02-06T22:03:19.377Z,100.00
2019-02-06T22:05:48.016Z,100.00
2019-02-06T22:08:16.496Z,100.00
2019-02-06T22:10:45.081Z,100.00
2019-02-06T22:13:13.812Z,100.00
2019-02-06T22:15:46.596Z,100.00
2019-02-06T22:18:15.590Z,100.00
2019-02-06T22:20:44.266Z,100.00
2019-02-06T22:23:12.735Z,100.00
2019-02-06T22:25:41.365Z,100.00
2019-02-06T22:28:10.027Z,100.00
2019-02-06T22:30:38.698Z,100.00
2019-02-06T22:33:07.499Z,100.00
2019-02-06T22:35:35.972Z,100.00
2019-02-06T22:38:04.828Z,100.00
2019-02-06T22:40:33.658Z,100.00
2019-02-06T22:43:03.272Z,100.00
2019-02-06T22:45:31.796Z,100.00
2019-02-06T22:48:00.748Z,100.00
2019-02-06T22:50:29.414Z,100.00
2019-02-06T22:52:58.356Z,100.00
2019-02-06T22:57:52.606Z,100.00
2019-02-06T23:00:45.143Z,100.00
2019-02-06T23:03:16.834Z,100.00
2019-02-06T23:05:46.657Z,100.00
2019-02-06T23:08:15.168Z,100.00
2019-02-06T23:10:43.845Z,100.00
2019-02-06T23:13:12.670Z,100.00
2019-02-06T23:15:41.694Z,100.00
2019-02-06T23:18:11.185Z,100.00
2019-02-06T23:20:39.831Z,100.00
2019-02-06T23:23:08.550Z,100.00
2019-02-06T23:25:36.994Z,100.00
2019-02-06T23:28:05.819Z,100.00
2019-02-06T23:30:35.288Z,100.00
2019-02-06T23:33:04.031Z,100.00
2019-02-06T23:35:32.699Z,100.00
2019-02-06T23:38:01.701Z,100.00
2019-02-06T23:40:31.220Z,100.00
2019-02-06T23:43:00.135Z,100.00
2019-02-06T23:45:28.855Z,100.00
2019-02-06T23:47:57.420Z,100.00
2019-02-06T23:50:25.890Z,100.00
2019-02-06T23:52:54.454Z,100.00
2019-02-06T23:55:22.884Z,100.00
2019-02-06T23:57:52.056Z,100.00
